Time;durP1;ratioP1;P1;durP2;ratioP2;P2;SDS_P1;SDS_P2;PMS_P1;PMS_P2;Temp;Humidity;BMP_temperature;BMP_pressure;BME280_temperature;BME280_humidity;BME280_pressure;Samples;Min_cycle;Max_cycle;Signal;HPM_P1;HPM_P2
2023/05/01 00:00:06;;;;;;;4.35;3.50;;;11.90;99.90;;;;;;4906813;28;50178;-79
2023/05/01 00:02:34;;;;;;;5.65;3.30;;;11.90;99.90;;;;;;4854888;28;38659;-79
2023/05/01 00:05:37;;;;;;;5.18;3.22;;;11.90;99.90;;;;;;4935676;28;39776;-79
2023/05/01 00:08:31;;;;;;;5.57;3.50;;;11.90;99.90;;;;;;4886887;29;49513;-80
2023/05/01 00:11:11;;;;;;;5.35;3.25;;;11.90;99.90;;;;;;4881584;29;40617;-80
2023/05/01 00:13:44;;;;;;;5.35;3.60;;;11.90;99.90;;;;;;4873881;29;50497;-79
2023/05/01 00:16:38;;;;;;;6.00;3.42;;;11.90;99.90;;;;;;4882788;29;37460;-80
2023/05/01 00:19:07;;;;;;;5.97;3.30;;;11.90;99.90;;;;;;4848107;29;38640;-81
2023/05/01 00:21:44;;;;;;;4.10;3.30;;;11.90;99.90;;;;;;4870416;29;40350;-79
2023/05/01 00:24:16;;;;;;;4.25;3.03;;;11.90;99.90;;;;;;4897437;29;39824;-80
2023/05/01 00:26:48;;;;;;;5.68;3.50;;;11.90;99.90;;;;;;4907976;29;39802;-79
2023/05/01 00:29:17;;;;;;;3.97;3.58;;;11.90;99.90;;;;;;4899434;28;37634;-79
2023/05/01 00:31:55;;;;;;;4.93;3.58;;;11.90;99.90;;;;;;4929523;29;40895;-78
2023/05/01 00:34:29;;;;;;;5.00;3.67;;;12.00;99.90;;;;;;4889257;29;39881;-80
2023/05/01 00:37:12;;;;;;;8.35;4.03;;;12.00;99.90;;;;;;4900259;29;38376;-79
2023/05/01 00:39:53;;;;;;;8.55;3.88;;;12.00;99.90;;;;;;4927114;28;50132;-79
2023/05/01 00:42:27;;;;;;;4.43;3.00;;;12.00;99.90;;;;;;4917471;29;39295;-79
2023/05/01 00:45:07;;;;;;;6.60;4.03;;;11.90;99.90;;;;;;4929063;29;39698;-78
2023/05/01 00:47:41;;;;;;;5.55;3.95;;;11.90;99.90;;;;;;4930786;28;39549;-79
2023/05/01 00:50:29;;;;;;;5.93;3.60;;;11.90;99.90;;;;;;4926214;29;38555;-80
2023/05/01 00:53:09;;;;;;;4.85;3.63;;;11.90;99.90;;;;;;4945153;28;39404;-79
2023/05/01 00:55:45;;;;;;;5.75;3.88;;;11.90;99.90;;;;;;4923118;29;49447;-80
2023/05/01 00:58:17;;;;;;;3.90;3.42;;;11.90;99.90;;;;;;4926031;28;38662;-80
2023/05/01 01:03:33;;;;;;;9.80;4.07;;;11.90;99.90;;;;;;5163094;23;20041;-79
2023/05/01 01:06:31;;;;;;;5.47;3.38;;;11.90;99.90;;;;;;4918649;29;38979;-79
2023/05/01 01:09:35;;;;;;;6.88;3.65;;;11.90;99.90;;;;;;4916373;29;49966;-80
2023/05/01 01:12:04;;;;;;;4.57;3.65;;;11.90;99.90;;;;;;4920055;28;50037;-79
2023/05/01 01:14:44;;;;;;;6.45;4.10;;;12.00;99.90;;;;;;4923306;29;46894;-80
2023/05/01 01:17:28;;;;;;;5.28;4.18;;;12.00;99.90;;;;;;4930897;28;37466;-79
2023/05/01 01:20:20;;;;;;;7.47;3.55;;;12.00;99.90;;;;;;4935036;29;37943;-80
2023/05/01 01:22:56;;;;;;;5.93;3.60;;;12.00;99.90;;;;;;4916511;29;48298;-80
2023/05/01 01:25:47;;;;;;;4.90;3.80;;;12.00;99.90;;;;;;4918427;29;38316;-80
2023/05/01 01:28:27;;;;;;;8.00;3.92;;;11.90;99.90;;;;;;4924154;29;38014;-79
2023/05/01 01:31:13;;;;;;;7.55;4.00;;;11.90;99.90;;;;;;4915797;29;39517;-78
2023/05/01 01:33:58;;;;;;;8.10;3.95;;;11.90;99.90;;;;;;4926945;29;46772;-79
2023/05/01 01:36:48;;;;;;;6.07;3.78;;;11.90;99.90;;;;;;4918757;29;37869;-79
2023/05/01 01:39:53;;;;;;;4.43;3.60;;;11.90;99.90;;;;;;4915268;29;39960;-79
2023/05/01 01:42:28;;;;;;;6.25;3.75;;;11.90;99.90;;;;;;4919306;29;39107;-80
2023/05/01 01:44:57;;;;;;;5.50;3.83;;;11.90;99.90;;;;;;4919733;29;37113;-80
2023/05/01 01:47:33;;;;;;;6.78;4.10;;;11.80;99.90;;;;;;4930397;29;37938;-78
2023/05/01 01:50:03;;;;;;;7.93;4.20;;;11.80;99.90;;;;;;4930034;29;37445;-78
2023/05/01 01:52:32;;;;;;;5.70;4.03;;;11.80;99.90;;;;;;4914137;29;47986;-78
2023/05/01 01:55:12;;;;;;;5.85;3.90;;;11.80;99.90;;;;;;4932087;29;36079;-79
2023/05/01 01:57:42;;;;;;;5.43;4.43;;;11.80;99.90;;;;;;4914400;29;49153;-78
2023/05/01 02:00:10;;;;;;;6.32;3.95;;;11.70;99.90;;;;;;4915510;29;39942;-79
2023/05/01 02:02:38;;;;;;;7.93;3.95;;;11.60;99.90;;;;;;4917519;29;39181;-79
2023/05/01 02:05:07;;;;;;;7.25;4.07;;;11.60;99.90;;;;;;4929931;29;37407;-79
2023/05/01 02:07:39;;;;;;;6.13;4.13;;;11.60;99.90;;;;;;4912494;29;37598;-80
2023/05/01 02:10:08;;;;;;;7.30;4.38;;;11.50;99.90;;;;;;4921618;29;39719;-80
2023/05/01 02:12:36;;;;;;;7.43;4.30;;;11.50;99.90;;;;;;4909203;29;38361;-79
2023/05/01 02:15:21;;;;;;;5.60;4.30;;;11.40;99.90;;;;;;4916630;29;37826;-80
2023/05/01 02:17:48;;;;;;;6.90;4.50;;;11.40;99.90;;;;;;4911520;29;49424;-80
2023/05/01 02:20:16;;;;;;;7.35;4.95;;;11.30;99.90;;;;;;4901255;29;37682;-79
2023/05/01 02:22:45;;;;;;;5.30;4.80;;;11.30;99.90;;;;;;4914456;29;36899;-80
2023/05/01 02:25:12;;;;;;;8.60;4.65;;;11.30;99.90;;;;;;4923866;29;35808;-80
2023/05/01 02:27:48;;;;;;;7.88;4.80;;;11.30;99.90;;;;;;4913060;29;40334;-80
2023/05/01 02:30:17;;;;;;;8.65;5.15;;;11.30;99.90;;;;;;4926905;29;38111;-80
2023/05/01 02:32:43;;;;;;;6.15;4.13;;;11.30;99.90;;;;;;4927929;29;38291;-80
2023/05/01 02:35:10;;;;;;;8.57;4.85;;;11.30;99.90;;;;;;4909194;29;37387;-79
2023/05/01 02:37:37;;;;;;;5.43;4.30;;;11.30;99.90;;;;;;4904565;29;39613;-79
2023/05/01 02:40:06;;;;;;;8.05;4.68;;;11.30;99.90;;;;;;4929038;29;37995;-80
2023/05/01 02:42:34;;;;;;;8.50;4.85;;;11.30;99.90;;;;;;4925925;29;47062;-80
2023/05/01 02:45:04;;;;;;;7.72;4.80;;;11.30;99.90;;;;;;4929333;29;37171;-80
2023/05/01 02:47:35;;;;;;;8.98;4.63;;;11.30;99.90;;;;;;4909435;29;48454;-80
2023/05/01 02:50:06;;;;;;;6.00;4.70;;;11.30;99.90;;;;;;4918784;29;37635;-80
2023/05/01 02:52:33;;;;;;;5.28;4.30;;;11.30;99.90;;;;;;4918796;29;50370;-80
2023/05/01 02:55:00;;;;;;;6.07;4.63;;;11.40;99.90;;;;;;4931272;29;39027;-80
2023/05/01 02:57:27;;;;;;;6.78;4.45;;;11.40;99.90;;;;;;4915399;29;40235;-80
2023/05/01 02:59:53;;;;;;;7.47;4.22;;;11.40;99.90;;;;;;4930409;29;41410;-81
2023/05/01 03:02:19;;;;;;;6.40;4.55;;;11.40;99.90;;;;;;4915072;29;38284;-81
2023/05/01 03:04:45;;;;;;;6.68;4.28;;;11.40;99.90;;;;;;4914851;29;38014;-80
2023/05/01 03:07:11;;;;;;;7.45;4.53;;;11.40;99.90;;;;;;4912898;29;40390;-81
2023/05/01 03:09:37;;;;;;;5.75;4.40;;;11.30;99.90;;;;;;4917255;29;40850;-79
2023/05/01 03:12:04;;;;;;;5.55;4.50;;;11.30;99.90;;;;;;4914592;29;38648;-80
2023/05/01 03:14:30;;;;;;;5.25;3.88;;;11.30;99.90;;;;;;4915255;29;38446;-79
2023/05/01 03:17:00;;;;;;;4.38;3.80;;;11.40;99.90;;;;;;4931815;29;37547;-80
2023/05/01 03:19:26;;;;;;;6.93;5.07;;;11.40;99.90;;;;;;4911704;29;37329;-80
2023/05/01 03:21:52;;;;;;;8.68;5.07;;;11.30;99.90;;;;;;4912518;29;38704;-79
2023/05/01 03:24:18;;;;;;;5.75;4.28;;;11.30;99.90;;;;;;4911317;29;39846;-80
2023/05/01 03:26:44;;;;;;;7.50;4.60;;;11.30;99.90;;;;;;4911935;29;36909;-80
2023/05/01 03:29:12;;;;;;;8.55;4.20;;;11.30;99.90;;;;;;4912358;29;38942;-79
2023/05/01 03:31:38;;;;;;;6.55;4.07;;;11.30;99.90;;;;;;4926971;29;39258;-80
2023/05/01 03:34:04;;;;;;;6.78;4.47;;;11.20;99.90;;;;;;4909990;29;36946;-80
2023/05/01 03:36:32;;;;;;;8.07;4.50;;;11.20;99.90;;;;;;4913127;29;37661;-79
2023/05/01 03:38:58;;;;;;;6.50;4.13;;;11.30;99.90;;;;;;4924874;29;37329;-80
2023/05/01 03:41:25;;;;;;;5.30;4.63;;;11.30;99.90;;;;;;4915749;29;38627;-80
2023/05/01 03:43:51;;;;;;;8.98;4.57;;;11.30;99.90;;;;;;4931369;29;35674;-80
2023/05/01 03:46:17;;;;;;;6.32;4.40;;;11.30;99.90;;;;;;4917412;29;39128;-80
2023/05/01 03:48:43;;;;;;;7.70;4.20;;;11.20;99.90;;;;;;4918927;29;39559;-80
2023/05/01 03:51:09;;;;;;;5.90;4.13;;;11.30;99.90;;;;;;4917572;29;37529;-81
2023/05/01 03:53:36;;;;;;;5.07;4.35;;;11.30;99.90;;;;;;4936024;29;37165;-80
2023/05/01 03:56:24;;;;;;;5.68;4.00;;;11.30;99.90;;;;;;4920850;29;40350;-80
2023/05/01 03:59:02;;;;;;;7.10;4.55;;;11.30;99.90;;;;;;4936017;29;37693;-81
2023/05/01 04:01:28;;;;;;;5.47;4.40;;;11.30;99.90;;;;;;4931786;29;48075;-80
2023/05/01 04:03:54;;;;;;;8.32;5.20;;;11.20;99.90;;;;;;4927062;29;37477;-81
2023/05/01 04:06:21;;;;;;;7.50;4.75;;;11.20;99.90;;;;;;4927238;29;40223;-79
2023/05/01 04:08:47;;;;;;;8.90;4.60;;;11.20;99.90;;;;;;4915831;29;38678;-79
2023/05/01 04:11:13;;;;;;;8.57;5.20;;;11.20;99.90;;;;;;4931909;29;36944;-80
2023/05/01 04:13:39;;;;;;;5.40;4.45;;;11.20;99.90;;;;;;4933278;29;37470;-79
2023/05/01 04:16:07;;;;;;;6.78;3.92;;;11.20;99.90;;;;;;4935081;29;38677;-81
2023/05/01 04:18:33;;;;;;;9.30;4.95;;;11.20;99.90;;;;;;4914703;29;37347;-79
2023/05/01 04:20:59;;;;;;;6.53;4.55;;;11.20;99.90;;;;;;4917590;29;39650;-80
2023/05/01 04:23:25;;;;;;;8.02;5.60;;;11.20;99.90;;;;;;4919844;29;38678;-80
2023/05/01 04:25:52;;;;;;;9.00;5.55;;;11.30;99.90;;;;;;4921355;29;39063;-81
2023/05/01 04:28:18;;;;;;;7.97;4.25;;;11.20;99.90;;;;;;4931659;28;37553;-80
2023/05/01 04:30:46;;;;;;;7.22;4.95;;;11.20;99.90;;;;;;4934337;29;38023;-80
2023/05/01 04:33:12;;;;;;;7.43;4.78;;;11.20;99.90;;;;;;4916090;29;36998;-82
2023/05/01 04:35:39;;;;;;;6.78;4.60;;;11.30;99.90;;;;;;4914073;29;39438;-80
2023/05/01 04:38:10;;;;;;;7.50;4.97;;;11.30;99.90;;;;;;4919948;29;39060;-81
2023/05/01 04:40:40;;;;;;;6.90;5.38;;;11.30;99.90;;;;;;4920307;29;37478;-80
2023/05/01 04:43:06;;;;;;;6.55;4.95;;;11.30;99.90;;;;;;4925432;29;37177;-79
2023/05/01 04:45:32;;;;;;;7.40;5.00;;;11.30;99.90;;;;;;4930928;29;39036;-79
2023/05/01 04:47:58;;;;;;;6.65;4.30;;;11.30;99.90;;;;;;4933676;29;37541;-79
2023/05/01 04:50:25;;;;;;;9.10;4.85;;;11.30;99.90;;;;;;4929202;29;37227;-81
2023/05/01 04:53:08;;;;;;;8.77;4.85;;;11.30;99.90;;;;;;4915998;29;37553;-80
2023/05/01 04:55:35;;;;;;;7.03;5.18;;;11.30;99.90;;;;;;4917759;29;49941;-80
2023/05/01 04:58:04;;;;;;;7.55;4.80;;;11.40;99.90;;;;;;4920229;29;40073;-79
2023/05/01 05:00:38;;;;;;;7.68;4.95;;;11.40;99.90;;;;;;4918293;29;49083;-80
2023/05/01 05:03:05;;;;;;;7.78;5.00;;;11.40;99.90;;;;;;4916098;29;38688;-80
2023/05/01 05:05:31;;;;;;;8.25;4.95;;;11.50;99.90;;;;;;4912700;29;40378;-80
2023/05/01 05:07:57;;;;;;;6.03;4.43;;;11.50;99.90;;;;;;4930694;29;38324;-80
2023/05/01 05:10:31;;;;;;;7.97;4.60;;;11.60;99.90;;;;;;4920751;29;37612;-79
2023/05/01 05:12:58;;;;;;;8.00;5.18;;;11.60;99.90;;;;;;4917217;29;37055;-79
2023/05/01 05:15:33;;;;;;;9.25;4.72;;;11.70;99.90;;;;;;4917707;29;38537;-80
2023/05/01 05:17:59;;;;;;;7.72;4.47;;;11.70;99.90;;;;;;4913813;29;38209;-79
2023/05/01 05:23:02;;;;;;;5.10;4.20;;;11.80;99.90;;;;;;5018581;23;20036;-78
2023/05/01 05:25:28;;;;;;;7.45;4.50;;;11.90;99.90;;;;;;4926939;28;46987;-78
2023/05/01 05:27:54;;;;;;;8.85;5.25;;;11.90;99.90;;;;;;4919508;29;36931;-78
2023/05/01 05:30:23;;;;;;;6.20;4.60;;;12.00;99.90;;;;;;4913453;28;38029;-78
2023/05/01 05:32:49;;;;;;;8.10;4.90;;;12.00;99.90;;;;;;4918281;29;35754;-77
2023/05/01 05:35:15;;;;;;;5.95;4.43;;;12.20;99.90;;;;;;4915335;28;37626;-77
2023/05/01 05:37:42;;;;;;;8.82;4.20;;;12.20;99.90;;;;;;4913747;29;38365;-77
2023/05/01 05:40:09;;;;;;;6.55;4.50;;;12.30;99.90;;;;;;4919033;28;38454;-77
2023/05/01 05:42:35;;;;;;;9.00;5.15;;;12.30;99.90;;;;;;4907595;29;36179;-77
2023/05/01 05:45:01;;;;;;;6.00;4.20;;;12.40;99.90;;;;;;4897750;29;37710;-78
2023/05/01 05:47:27;;;;;;;7.25;4.35;;;12.50;99.90;;;;;;4882899;29;37769;-77
2023/05/01 05:49:54;;;;;;;6.53;4.30;;;12.50;99.90;;;;;;4890759;29;37030;-78
2023/05/01 05:52:20;;;;;;;6.00;4.22;;;12.60;99.90;;;;;;4891923;28;37178;-77
2023/05/01 05:54:47;;;;;;;6.80;5.00;;;12.60;99.90;;;;;;4896967;29;38705;-77
2023/05/01 05:57:13;;;;;;;7.95;5.88;;;12.60;99.90;;;;;;4894487;28;37690;-77
2023/05/01 05:59:40;;;;;;;9.05;5.70;;;12.60;99.90;;;;;;4911832;28;37410;-78
2023/05/01 06:02:06;;;;;;;8.73;5.40;;;12.70;99.90;;;;;;4896956;28;35843;-78
2023/05/01 06:04:32;;;;;;;10.20;5.80;;;12.80;99.90;;;;;;4889157;29;37810;-77
2023/05/01 06:06:59;;;;;;;11.10;5.47;;;12.80;99.90;;;;;;4887207;29;37038;-78
2023/05/01 06:09:25;;;;;;;9.70;4.70;;;12.70;99.90;;;;;;4889102;28;37898;-78
2023/05/01 06:11:51;;;;;;;5.72;4.30;;;12.60;99.90;;;;;;4892388;29;36438;-78
2023/05/01 06:14:17;;;;;;;7.53;5.10;;;12.60;99.90;;;;;;4894131;29;38161;-78
2023/05/01 06:16:44;;;;;;;8.80;4.93;;;12.80;99.90;;;;;;4897355;29;38330;-78
2023/05/01 06:19:11;;;;;;;9.00;4.63;;;12.80;99.90;;;;;;4893095;28;36719;-79
2023/05/01 06:21:37;;;;;;;7.97;4.70;;;12.80;99.90;;;;;;4888478;29;36180;-77
2023/05/01 06:24:03;;;;;;;5.78;4.57;;;12.90;99.90;;;;;;4889839;29;39267;-78
2023/05/01 06:26:30;;;;;;;8.10;4.47;;;13.00;99.90;;;;;;4893483;29;39056;-77
2023/05/01 06:28:56;;;;;;;6.45;4.30;;;13.10;99.90;;;;;;4893098;28;38166;-77
2023/05/01 06:31:22;;;;;;;8.43;4.88;;;13.20;99.90;;;;;;4893348;29;38267;-76
2023/05/01 06:33:49;;;;;;;6.47;4.45;;;13.20;99.90;;;;;;4891962;29;20984;-78
2023/05/01 06:36:15;;;;;;;8.25;4.85;;;13.20;99.90;;;;;;4888816;28;39075;-77
2023/05/01 06:38:47;;;;;;;6.45;4.53;;;13.00;99.90;;;;;;4885793;29;38246;-77
2023/05/01 06:41:17;;;;;;;7.95;4.93;;;13.10;99.90;;;;;;4897190;29;36323;-79
2023/05/01 06:43:43;;;;;;;7.10;4.72;;;13.10;99.90;;;;;;4898071;28;39111;-79
2023/05/01 06:46:09;;;;;;;6.07;4.82;;;13.10;99.90;;;;;;4900133;28;38608;-82
2023/05/01 06:48:35;;;;;;;9.10;5.15;;;13.10;99.90;;;;;;4912129;29;37549;-80
2023/05/01 06:51:07;;;;;;;12.05;5.15;;;13.00;99.90;;;;;;4935856;29;36359;-82
2023/05/01 06:53:39;;;;;;;10.98;4.72;;;13.10;99.90;;;;;;4913724;29;47932;-83
2023/05/01 06:56:07;;;;;;;11.20;4.90;;;13.10;99.90;;;;;;4915608;29;37666;-81
2023/05/01 07:01:28;;;;;;;7.15;4.78;;;13.20;99.90;;;;;;5289601;23;20052;-86
2023/05/01 07:07:05;;;;;;;5.45;4.10;;;13.40;99.90;;;;;;4934176;23;20048;-81
2023/05/01 07:09:31;;;;;;;11.70;6.05;;;13.40;99.90;;;;;;4897097;28;36407;-81
2023/05/01 07:11:57;;;;;;;8.40;4.57;;;13.50;99.90;;;;;;4908173;28;36886;-82
2023/05/01 07:14:23;;;;;;;7.00;4.85;;;13.60;99.90;;;;;;4906788;28;37900;-80
2023/05/01 07:16:50;;;;;;;10.88;5.53;;;13.70;99.90;;;;;;4919479;28;37448;-83
2023/05/01 07:19:16;;;;;;;8.98;5.10;;;13.70;99.90;;;;;;4915874;28;37925;-82
2023/05/01 07:21:42;;;;;;;10.27;5.65;;;13.70;99.90;;;;;;4917334;28;37185;-82
2023/05/01 07:24:09;;;;;;;7.57;5.30;;;13.60;99.90;;;;;;4914451;28;38641;-81
2023/05/01 07:26:36;;;;;;;6.63;4.78;;;13.80;99.90;;;;;;4911751;28;37819;-81
2023/05/01 07:29:03;;;;;;;7.53;4.90;;;13.90;99.90;;;;;;4905263;28;38860;-84
2023/05/01 07:31:29;;;;;;;6.07;5.10;;;14.00;99.90;;;;;;4906404;28;36303;-81
2023/05/01 07:33:55;;;;;;;9.57;5.32;;;14.00;99.90;;;;;;4918098;28;39853;-83
2023/05/01 07:36:22;;;;;;;14.60;5.20;;;14.00;99.90;;;;;;4919436;28;38072;-81
2023/05/01 07:38:49;;;;;;;9.63;5.38;;;13.80;99.90;;;;;;4903676;29;37523;-86
2023/05/01 07:41:15;;;;;;;8.52;4.55;;;13.90;99.90;;;;;;4908477;28;37751;-84
2023/05/01 07:43:42;;;;;;;10.15;5.78;;;14.00;99.90;;;;;;4906385;28;37741;-84
2023/05/01 07:46:08;;;;;;;7.28;5.20;;;13.80;99.90;;;;;;4906726;28;37002;-82
2023/05/01 07:48:34;;;;;;;11.02;5.68;;;13.80;99.90;;;;;;4895071;29;37181;-81
2023/05/01 07:51:03;;;;;;;7.55;5.38;;;13.50;99.90;;;;;;4890417;28;36957;-78
2023/05/01 07:53:30;;;;;;;12.93;6.15;;;13.40;99.90;;;;;;4893870;28;47253;-78
2023/05/01 07:56:07;;;;;;;7.55;5.45;;;13.40;99.90;;;;;;4905436;28;37898;-79
2023/05/01 07:58:35;;;;;;;5.80;4.50;;;13.40;99.90;;;;;;4906543;29;47497;-80
2023/05/01 08:01:01;;;;;;;7.60;4.97;;;13.50;99.90;;;;;;4905194;29;36071;-78
2023/05/01 08:03:28;;;;;;;7.90;5.65;;;13.60;99.90;;;;;;4917084;28;48376;-80
2023/05/01 08:05:55;;;;;;;9.43;5.28;;;13.70;99.90;;;;;;4894709;29;39969;-82
2023/05/01 08:08:21;;;;;;;7.72;5.32;;;13.80;99.90;;;;;;4901225;28;37309;-81
2023/05/01 08:10:48;;;;;;;6.35;5.15;;;13.90;99.90;;;;;;4922367;29;38291;-81
2023/05/01 08:13:14;;;;;;;6.97;4.82;;;14.00;99.90;;;;;;4907447;28;39439;-83
2023/05/01 08:15:41;;;;;;;10.60;6.07;;;14.10;99.90;;;;;;4896272;29;38393;-82
2023/05/01 08:18:08;;;;;;;8.13;5.82;;;14.10;99.90;;;;;;4891872;28;38594;-82
2023/05/01 08:20:46;;;;;;;9.30;6.28;;;14.10;99.90;;;;;;4899202;29;36250;-83
2023/05/01 08:23:14;;;;;;;10.63;6.03;;;14.00;99.90;;;;;;4899110;28;38113;-81
2023/05/01 08:25:45;;;;;;;8.00;5.47;;;13.90;99.90;;;;;;4913744;28;37466;-81
2023/05/01 08:31:23;;;;;;;8.82;5.68;;;13.90;99.90;;;;;;4901995;29;36686;-82
2023/05/01 08:33:50;;;;;;;9.07;5.65;;;13.70;99.90;;;;;;4911210;29;38110;-80
2023/05/01 08:36:16;;;;;;;9.07;5.78;;;13.70;99.90;;;;;;4917452;28;38712;-81
2023/05/01 08:38:42;;;;;;;10.32;6.40;;;13.70;99.90;;;;;;4907303;29;36797;-80
2023/05/01 08:41:09;;;;;;;9.23;5.80;;;13.70;99.90;;;;;;4906472;28;35896;-78
2023/05/01 08:43:35;;;;;;;10.85;6.85;;;13.70;99.90;;;;;;4903712;29;37508;-79
2023/05/01 08:46:06;;;;;;;13.65;6.70;;;13.70;99.90;;;;;;4917861;28;37930;-79
2023/05/01 08:48:35;;;;;;;13.13;6.95;;;13.60;99.90;;;;;;4902234;29;47130;-80
2023/05/01 08:51:03;;;;;;;11.52;6.97;;;13.60;99.90;;;;;;4899505;29;36195;-81
2023/05/01 08:53:32;;;;;;;12.75;6.43;;;13.50;99.90;;;;;;4910012;28;37705;-81
2023/05/01 08:55:59;;;;;;;10.98;7.07;;;13.50;99.90;;;;;;4912243;29;37326;-81
2023/05/01 08:58:27;;;;;;;10.75;6.80;;;13.40;99.90;;;;;;4909395;29;36917;-84
2023/05/01 09:09:05;;;;;;;10.43;7.25;;;13.90;99.90;;;;;;4891154;28;20049;-82
2023/05/01 09:11:31;;;;;;;14.07;7.57;;;13.90;99.90;;;;;;4873096;29;38764;-82
2023/05/01 09:14:00;;;;;;;10.30;6.57;;;14.00;99.90;;;;;;4879172;29;37558;-82
2023/05/01 09:16:26;;;;;;;9.93;7.00;;;14.00;99.90;;;;;;4915305;29;37421;-82
2023/05/01 09:18:56;;;;;;;11.10;6.88;;;13.90;99.90;;;;;;4884864;29;37042;-81
2023/05/01 09:21:24;;;;;;;11.27;6.75;;;13.90;99.90;;;;;;4876425;29;36135;-83
2023/05/01 09:23:51;;;;;;;11.82;7.60;;;13.80;99.90;;;;;;4881327;29;40143;-80
2023/05/01 09:26:17;;;;;;;16.30;7.57;;;13.70;99.90;;;;;;4879407;29;37300;-82
2023/05/01 09:28:46;;;;;;;14.75;7.95;;;13.50;99.90;;;;;;4904496;28;37895;-79
2023/05/01 09:31:28;;;;;;;12.02;8.52;;;13.10;99.90;;;;;;4898180;29;35297;-79
2023/05/01 09:33:56;;;;;;;;;;;12.80;99.90;;;;;;4908351;28;38930;-79
2023/05/01 09:36:28;;;;;;;14.00;8.88;;;12.60;99.90;;;;;;4900772;29;38528;-80
2023/05/01 09:39:01;;;;;;;;;;;12.40;99.90;;;;;;4916820;29;37009;-79
2023/05/01 09:41:56;;;;;;;19.73;9.80;;;12.10;99.90;;;;;;4922278;28;49865;-80
2023/05/01 09:47:09;;;;;;;15.88;10.00;;;11.80;99.90;;;;;;5238935;23;20053;-80
2023/05/01 09:49:58;;;;;;;18.58;10.88;;;11.70;99.90;;;;;;5248106;23;48059;-80
2023/05/01 10:08:03;;;;;;;17.65;8.80;;;11.70;99.90;;;;;;5670341;23;20055;-78
2023/05/01 10:28:42;;;;;;;15.63;10.38;;;12.30;99.90;;;;;;5732806;23;20056;-79
2023/05/01 10:31:15;;;;;;;14.27;10.27;;;12.40;99.90;;;;;;4933488;28;39049;-79
2023/05/01 10:34:02;;;;;;;14.85;11.07;;;12.40;99.90;;;;;;4916967;28;37717;-78
2023/05/01 10:36:46;;;;;;;17.02;10.55;;;12.50;99.90;;;;;;4931560;28;47624;-78
2023/05/01 10:39:32;;;;;;;14.13;10.98;;;12.50;99.90;;;;;;4937794;28;36971;-78
2023/05/01 10:42:05;;;;;;;19.60;11.15;;;12.50;99.90;;;;;;4920537;28;36852;-78
2023/05/01 10:44:32;;;;;;;18.13;10.07;;;12.70;99.90;;;;;;4921975;29;50124;-79
2023/05/01 10:46:59;;;;;;;16.23;10.18;;;12.80;99.90;;;;;;4924744;28;39338;-79
2023/05/01 10:49:47;;;;;;;12.95;9.43;;;13.10;99.90;;;;;;4907129;28;37830;-78
2023/05/01 10:52:14;;;;;;;20.58;11.05;;;13.20;99.90;;;;;;4899019;28;36894;-77
2023/05/01 10:54:40;;;;;;;13.32;9.60;;;13.40;99.90;;;;;;4900471;29;36324;-77
2023/05/01 10:57:45;;;;;;;17.48;8.88;;;13.40;99.90;;;;;;4906322;28;39094;-82
2023/05/01 11:00:12;;;;;;;14.35;8.10;;;13.60;99.90;;;;;;4891706;28;40194;-80
2023/05/01 11:02:38;;;;;;;17.98;9.57;;;13.70;99.90;;;;;;4897737;29;37832;-82
2023/05/01 11:05:10;;;;;;;13.65;9.18;;;13.90;99.90;;;;;;4892202;28;37643;-83
2023/05/01 11:07:39;;;;;;;13.90;7.97;;;14.20;99.90;;;;;;4896625;28;47577;-84
2023/05/01 11:10:26;;;;;;;13.40;7.32;;;14.40;99.90;;;;;;4888857;28;37604;-85
2023/05/01 11:12:53;;;;;;;13.95;8.93;;;14.70;99.90;;;;;;4908974;28;36953;-83
2023/05/01 11:15:26;;;;;;;12.27;8.10;;;15.10;99.90;;;;;;4889623;28;37694;-81
2023/05/01 11:17:52;;;;;;;9.63;7.25;;;15.40;99.90;;;;;;4890220;29;38044;-82
2023/05/01 11:20:24;;;;;;;16.75;8.07;;;15.50;99.90;;;;;;4893215;28;38745;-84
2023/05/01 11:23:00;;;;;;;9.95;6.97;;;15.80;99.90;;;;;;4893170;29;37427;-82
2023/05/01 11:25:29;;;;;;;13.45;7.82;;;16.10;99.90;;;;;;4894788;28;36949;-81
2023/05/01 11:28:00;;;;;;;11.60;7.65;;;16.60;99.90;;;;;;4890829;29;39270;-82
2023/05/01 11:30:39;;;;;;;9.57;6.07;;;17.00;99.90;;;;;;4886958;29;47399;-82
2023/05/01 11:33:06;;;;;;;13.40;6.82;;;16.90;99.90;;;;;;4889233;28;38584;-82
2023/05/01 11:35:32;;;;;;;12.60;6.78;;;16.80;99.90;;;;;;4894578;29;34150;-81
2023/05/01 11:37:58;;;;;;;10.63;6.53;;;16.70;99.90;;;;;;4893554;29;38496;-85
2023/05/01 11:40:30;;;;;;;10.05;5.97;;;16.80;99.90;;;;;;4889365;28;37370;-86
2023/05/01 11:43:07;;;;;;;11.88;5.90;;;17.00;99.90;;;;;;4890496;29;36907;-82
2023/05/01 11:45:34;;;;;;;11.98;6.05;;;17.40;99.90;;;;;;4892377;29;47254;-82
2023/05/01 11:48:01;;;;;;;7.25;5.60;;;17.60;99.90;;;;;;4893306;29;38064;-84
2023/05/01 11:50:36;;;;;;;7.50;5.38;;;17.90;99.90;;;;;;4894152;28;50051;-84
2023/05/01 11:53:17;;;;;;;8.48;5.90;;;18.10;99.90;;;;;;4897940;29;39613;-83
2023/05/01 11:55:44;;;;;;;8.85;6.53;;;18.30;99.90;;;;;;4895305;28;37467;-80
2023/05/01 11:58:10;;;;;;;7.32;5.50;;;18.50;99.90;;;;;;4894178;29;41159;-79
2023/05/01 12:00:40;;;;;;;9.13;6.60;;;18.90;99.90;;;;;;4891733;28;37983;-80
2023/05/01 12:03:12;;;;;;;7.60;5.40;;;18.80;99.90;;;;;;4894749;29;37452;-80
2023/05/01 12:05:43;;;;;;;7.30;4.88;;;19.20;99.90;;;;;;4896357;29;36311;-80
2023/05/01 12:08:17;;;;;;;7.20;5.30;;;19.80;99.90;;;;;;4898498;28;37765;-80
2023/05/01 12:10:45;;;;;;;7.80;5.10;;;19.80;99.90;;;;;;4900157;28;40267;-81
2023/05/01 12:13:13;;;;;;;6.65;4.50;;;20.30;99.90;;;;;;4890187;28;35584;-81
2023/05/01 12:15:43;;;;;;;8.65;4.35;;;20.00;99.90;;;;;;4894915;29;36351;-80
2023/05/01 12:18:11;;;;;;;5.03;4.22;;;20.00;99.90;;;;;;4876893;29;37628;-81
2023/05/01 12:20:39;;;;;;;5.80;4.93;;;20.00;99.90;;;;;;4897057;29;37043;-81
2023/05/01 12:23:07;;;;;;;7.43;5.20;;;19.90;99.90;;;;;;4908927;23;37048;-79
2023/05/01 12:25:34;;;;;;;8.15;5.13;;;19.80;99.90;;;;;;4889360;29;37972;-79
2023/05/01 12:28:14;;;;;;;8.25;5.40;;;19.70;99.90;;;;;;4882430;29;37435;-79
2023/05/01 12:30:42;;;;;;;9.27;5.60;;;19.30;99.90;;;;;;4892920;29;48156;-78
2023/05/01 12:33:17;;;;;;;8.30;5.80;;;19.30;99.90;;;;;;4884573;29;36920;-78
2023/05/01 12:35:45;;;;;;;9.23;6.05;;;19.30;99.90;;;;;;4891615;29;36307;-78
2023/05/01 12:38:21;;;;;;;9.35;6.22;;;19.20;99.90;;;;;;4894151;29;38574;-80
2023/05/01 12:40:54;;;;;;;8.20;5.88;;;19.40;99.90;;;;;;4893770;29;39183;-81
2023/05/01 12:43:28;;;;;;;7.68;5.88;;;19.40;99.90;;;;;;4889918;29;37595;-78
2023/05/01 12:45:55;;;;;;;9.25;6.05;;;19.00;99.90;;;;;;4901242;29;37006;-78
2023/05/01 12:48:22;;;;;;;10.52;6.15;;;18.70;99.90;;;;;;4883804;29;37911;-80
2023/05/01 12:50:54;;;;;;;6.30;5.25;;;19.00;99.90;;;;;;4899060;29;38032;-80
2023/05/01 12:53:22;;;;;;;9.80;6.68;;;19.40;99.90;;;;;;4883497;29;36971;-80
2023/05/01 12:55:50;;;;;;;10.10;5.72;;;19.70;99.90;;;;;;4880699;29;35957;-77
2023/05/01 12:58:17;;;;;;;6.38;5.30;;;19.60;99.90;;;;;;4879391;29;38162;-78
2023/05/01 13:00:51;;;;;;;11.32;5.78;;;19.50;99.90;;;;;;4895396;29;39264;-77
2023/05/01 13:03:25;;;;;;;6.25;5.05;;;19.20;99.90;;;;;;4880143;29;37255;-76
2023/05/01 13:06:02;;;;;;;5.88;4.68;;;19.00;99.90;;;;;;4888669;29;35706;-81
2023/05/01 13:08:38;;;;;;;9.93;5.15;;;19.10;99.90;;;;;;4877904;29;46595;-78
2023/05/01 13:11:13;;;;;;;6.47;4.78;;;18.80;99.90;;;;;;4889183;29;37911;-78
2023/05/01 13:13:40;;;;;;;7.35;4.20;;;18.70;99.90;;;;;;4881607;29;37985;-78
2023/05/01 13:16:09;;;;;;;6.85;4.25;;;18.60;99.90;;;;;;4888768;29;39562;-77
2023/05/01 13:18:49;;;;;;;8.82;4.50;;;18.40;99.90;;;;;;4891783;29;38700;-79
2023/05/01 13:21:21;;;;;;;5.32;4.10;;;18.40;99.90;;;;;;4895779;29;39619;-78
2023/05/01 13:23:58;;;;;;;10.17;4.77;;;18.30;99.90;;;;;;4879226;29;36975;-78
2023/05/01 13:26:34;;;;;;;5.93;4.60;;;18.20;99.90;;;;;;4886245;29;35840;-78
2023/05/01 13:29:02;;;;;;;6.38;4.47;;;17.90;99.90;;;;;;4885081;29;38624;-78
2023/05/01 13:31:29;;;;;;;6.30;4.65;;;17.90;99.90;;;;;;4897467;29;48878;-78
2023/05/01 13:33:57;;;;;;;8.23;5.20;;;17.60;99.90;;;;;;4900931;29;38205;-78
2023/05/01 13:36:24;;;;;;;10.60;5.90;;;17.40;99.90;;;;;;4902282;29;38748;-77
2023/05/01 13:38:53;;;;;;;9.57;5.15;;;17.20;99.90;;;;;;4903016;29;39087;-78
2023/05/01 13:41:21;;;;;;;11.40;5.82;;;17.10;99.90;;;;;;4890317;29;37300;-77
2023/05/01 13:43:48;;;;;;;9.93;5.57;;;17.00;99.90;;;;;;4882261;29;38355;-77
2023/05/01 13:46:16;;;;;;;10.05;6.47;;;17.10;99.90;;;;;;4899765;29;38744;-77
2023/05/01 13:48:43;;;;;;;13.95;5.88;;;17.10;99.90;;;;;;4897109;29;37523;-77
2023/05/01 13:51:12;;;;;;;9.60;5.97;;;17.20;99.90;;;;;;4883163;29;38636;-77
2023/05/01 13:53:39;;;;;;;6.75;3.53;;;17.60;99.90;;;;;;4879923;29;36684;-79
2023/05/01 13:56:07;;;;;;;8.73;3.90;;;18.10;99.90;;;;;;4876793;29;37179;-78
2023/05/01 13:58:36;;;;;;;7.63;3.72;;;18.80;99.90;;;;;;4898471;28;39713;-78
2023/05/01 14:01:03;;;;;;;4.13;3.72;;;19.20;99.90;;;;;;4897506;29;37475;-75